Time;durP1;ratioP1;P1;durP2;ratioP2;P2;SDS_P1;SDS_P2;PMS_P1;PMS_P2;Temp;Humidity;BMP_temperature;BMP_pressure;BME280_temperature;BME280_humidity;BME280_pressure;Samples;Min_cycle;Max_cycle;Signal;HPM_P1;HPM_P2
2023/12/01 00:02:03;;;;;;;31.17;16.17;;;1.90;84.40;;;;;;6210214;23;20012;-82
2023/12/01 00:04:29;;;;;;;31.63;15.83;;;1.90;84.60;;;;;;6231277;23;20016;-81
2023/12/01 00:06:55;;;;;;;32.30;16.73;;;1.90;84.60;;;;;;6230517;23;20012;-81
2023/12/01 00:09:21;;;;;;;31.67;16.17;;;1.90;84.70;;;;;;6205416;23;20023;-82
2023/12/01 00:11:47;;;;;;;30.30;15.73;;;1.90;84.60;;;;;;6204276;23;20013;-83
2023/12/01 00:14:12;;;;;;;31.77;16.73;;;1.90;84.60;;;;;;6228871;23;20135;-82
2023/12/01 00:16:38;;;;;;;29.23;15.77;;;1.90;84.40;;;;;;6230581;23;20406;-82
2023/12/01 00:19:03;;;;;;;31.93;16.63;;;1.90;84.30;;;;;;6231238;23;20066;-82
2023/12/01 00:21:29;;;;;;;32.53;15.77;;;1.90;84.20;;;;;;6232268;23;20464;-82
2023/12/01 00:23:54;;;;;;;30.63;16.10;;;1.80;84.40;;;;;;6228901;23;20389;-82
2023/12/01 00:26:20;;;;;;;30.63;16.17;;;1.80;83.80;;;;;;6229505;23;20096;-82
2023/12/01 00:28:46;;;;;;;31.73;15.57;;;1.80;83.90;;;;;;6252804;23;20009;-81
2023/12/01 00:31:11;;;;;;;29.80;15.23;;;1.80;83.90;;;;;;6228809;23;20477;-82
2023/12/01 00:33:37;;;;;;;28.53;14.10;;;1.70;83.90;;;;;;6228660;23;20020;-81
2023/12/01 00:36:03;;;;;;;31.00;15.00;;;1.70;83.90;;;;;;6227692;23;20017;-82
2023/12/01 00:38:29;;;;;;;26.93;14.73;;;1.70;83.90;;;;;;6228109;23;20023;-82
2023/12/01 00:40:54;;;;;;;28.43;14.17;;;1.70;83.70;;;;;;6228689;23;20013;-82
2023/12/01 00:43:20;;;;;;;30.33;14.57;;;1.70;83.80;;;;;;6228145;23;20115;-82
2023/12/01 00:45:47;;;;;;;31.73;15.77;;;1.70;83.70;;;;;;6226995;23;20088;-82
2023/12/01 00:48:12;;;;;;;27.17;13.87;;;1.60;83.70;;;;;;6227329;23;20067;-82
2023/12/01 00:50:39;;;;;;;27.27;14.37;;;1.60;83.70;;;;;;6227779;23;20013;-82
2023/12/01 00:53:06;;;;;;;32.20;16.40;;;1.60;83.70;;;;;;6228128;23;20044;-82
2023/12/01 00:55:31;;;;;;;30.17;14.53;;;1.60;83.70;;;;;;6229784;23;20020;-82
2023/12/01 00:57:57;;;;;;;34.27;15.63;;;1.50;83.80;;;;;;6230034;23;20100;-82
2023/12/01 01:00:23;;;;;;;30.93;15.67;;;1.50;83.80;;;;;;6229703;23;20016;-82
2023/12/01 01:02:52;;;;;;;32.77;16.20;;;1.50;83.90;;;;;;6229858;23;20012;-81
2023/12/01 01:05:17;;;;;;;31.73;15.17;;;1.50;84.10;;;;;;6205591;23;20020;-82
2023/12/01 01:07:43;;;;;;;32.67;15.83;;;1.50;84.20;;;;;;6232416;23;20005;-82
2023/12/01 01:10:09;;;;;;;30.37;15.30;;;1.50;84.40;;;;;;6206587;23;20024;-82
2023/12/01 01:12:35;;;;;;;31.87;14.97;;;1.50;84.50;;;;;;6232996;23;20084;-82
2023/12/01 01:15:03;;;;;;;33.00;15.30;;;1.50;84.60;;;;;;6232693;23;20020;-81
2023/12/01 01:17:31;;;;;;;32.80;15.80;;;1.50;84.80;;;;;;6230802;23;20067;-82
2023/12/01 01:19:58;;;;;;;31.53;15.60;;;1.50;84.90;;;;;;6233524;23;20060;-82
2023/12/01 01:22:27;;;;;;;38.00;17.57;;;1.60;85.00;;;;;;6236451;23;20038;-82
2023/12/01 01:24:53;;;;;;;33.30;16.63;;;1.60;85.10;;;;;;6231603;23;20027;-82
2023/12/01 01:27:19;;;;;;;35.80;17.67;;;1.60;85.10;;;;;;6230216;23;20008;-82
2023/12/01 01:29:44;;;;;;;33.13;16.67;;;1.60;85.60;;;;;;6254324;23;20028;-82
2023/12/01 01:32:11;;;;;;;32.57;15.77;;;1.60;85.30;;;;;;6228374;23;20686;-82
2023/12/01 01:34:36;;;;;;;33.43;16.93;;;1.50;85.40;;;;;;6202767;23;20016;-82
2023/12/01 01:37:02;;;;;;;32.53;15.63;;;1.60;85.40;;;;;;6228227;23;20087;-82
2023/12/01 01:39:29;;;;;;;32.73;15.43;;;1.60;85.40;;;;;;6228244;23;20412;-82
2023/12/01 01:41:58;;;;;;;31.87;14.83;;;1.60;85.40;;;;;;6228135;23;20016;-82
2023/12/01 01:44:23;;;;;;;33.07;15.70;;;1.60;85.50;;;;;;6229024;23;20023;-82
2023/12/01 01:46:50;;;;;;;31.77;14.43;;;1.60;85.50;;;;;;6229459;23;20013;-81
2023/12/01 01:49:16;;;;;;;31.20;14.63;;;1.50;85.50;;;;;;6203846;23;20008;-81
2023/12/01 01:51:43;;;;;;;31.10;14.33;;;1.60;85.60;;;;;;6229676;23;20020;-81
2023/12/01 01:54:10;;;;;;;35.67;16.73;;;1.60;85.70;;;;;;6231677;23;20012;-81
2023/12/01 01:56:36;;;;;;;34.30;15.90;;;1.60;85.60;;;;;;6230599;23;20349;-81
2023/12/01 01:59:01;;;;;;;29.97;14.67;;;1.60;85.50;;;;;;6231011;23;20013;-81
2023/12/01 02:01:27;;;;;;;32.10;15.60;;;1.60;85.50;;;;;;6230154;23;20563;-81
2023/12/01 02:03:53;;;;;;;33.17;15.40;;;1.60;85.50;;;;;;6230008;23;20020;-81
2023/12/01 02:06:19;;;;;;;31.43;15.10;;;1.60;85.50;;;;;;6204485;23;20017;-81
2023/12/01 02:08:45;;;;;;;33.93;15.90;;;1.60;85.40;;;;;;6230509;23;20022;-82
2023/12/01 02:11:14;;;;;;;35.10;16.07;;;1.60;85.50;;;;;;6231305;23;20012;-82
2023/12/01 02:13:40;;;;;;;36.97;15.60;;;1.60;85.60;;;;;;6230776;23;20027;-81
2023/12/01 02:16:08;;;;;;;38.53;17.13;;;1.60;85.60;;;;;;6231122;23;20016;-81
2023/12/01 02:18:34;;;;;;;30.93;15.10;;;1.60;85.60;;;;;;6231728;23;20017;-81
2023/12/01 02:21:00;;;;;;;31.27;14.47;;;1.70;85.50;;;;;;6208311;23;20020;-82
2023/12/01 02:23:26;;;;;;;29.87;14.77;;;1.60;85.30;;;;;;6233435;23;20017;-81
2023/12/01 02:25:52;;;;;;;29.77;14.10;;;1.60;85.20;;;;;;6232928;23;20068;-82
2023/12/01 02:28:18;;;;;;;28.33;13.33;;;1.60;84.90;;;;;;6231168;23;20040;-82
2023/12/01 02:30:54;;;;;;;31.73;14.37;;;1.60;84.60;;;;;;6230482;23;20038;-82
2023/12/01 02:33:21;;;;;;;29.90;14.27;;;1.60;84.10;;;;;;6255831;23;20000;-82
2023/12/01 02:35:47;;;;;;;26.47;13.27;;;1.50;84.00;;;;;;6204940;23;20016;-82
2023/12/01 02:38:13;;;;;;;28.80;14.93;;;1.50;83.90;;;;;;6229974;23;20012;-82
2023/12/01 02:40:42;;;;;;;31.43;14.10;;;1.40;83.90;;;;;;6231570;23;20008;-82
2023/12/01 02:43:10;;;;;;;28.57;13.10;;;1.40;83.90;;;;;;6231081;23;20013;-82
2023/12/01 02:45:36;;;;;;;27.83;13.30;;;1.30;83.90;;;;;;6231615;23;20059;-82
2023/12/01 02:48:02;;;;;;;26.83;12.37;;;1.30;83.90;;;;;;6229615;23;20008;-82
2023/12/01 02:50:27;;;;;;;28.53;13.27;;;1.30;83.80;;;;;;6229313;23;20008;-81
2023/12/01 02:52:53;;;;;;;30.27;14.33;;;1.30;83.70;;;;;;6230093;23;20012;-81
2023/12/01 02:55:19;;;;;;;29.80;14.60;;;1.20;83.60;;;;;;6231208;23;20070;-81
2023/12/01 02:57:44;;;;;;;27.43;14.00;;;1.20;83.80;;;;;;6230698;23;20013;-81
2023/12/01 03:00:13;;;;;;;30.17;14.17;;;1.20;83.90;;;;;;6231898;23;20085;-81
2023/12/01 03:02:43;;;;;;;30.47;13.77;;;1.20;84.00;;;;;;6232116;23;20036;-81
2023/12/01 03:05:10;;;;;;;27.87;13.27;;;1.20;84.00;;;;;;6230227;23;20016;-81
2023/12/01 03:07:37;;;;;;;31.17;14.60;;;1.10;84.00;;;;;;6256304;23;20012;-81
2023/12/01 03:10:03;;;;;;;33.03;15.03;;;1.10;84.00;;;;;;6206303;23;20009;-81
2023/12/01 03:12:29;;;;;;;34.60;15.73;;;1.10;84.00;;;;;;6207507;23;20055;-81
2023/12/01 03:14:55;;;;;;;33.73;14.63;;;1.10;84.10;;;;;;6208135;23;20013;-81
2023/12/01 03:17:23;;;;;;;31.33;13.33;;;1.10;84.30;;;;;;6233848;23;20023;-81
2023/12/01 03:19:50;;;;;;;31.47;14.90;;;1.10;84.40;;;;;;6260509;23;20016;-81
2023/12/01 03:22:16;;;;;;;28.73;13.90;;;1.00;84.30;;;;;;6208723;23;20017;-81
2023/12/01 03:24:44;;;;;;;31.43;13.67;;;1.00;84.40;;;;;;6231848;23;20020;-81
2023/12/01 03:27:10;;;;;;;32.50;14.77;;;1.00;84.50;;;;;;6232490;23;20023;-81
2023/12/01 03:29:38;;;;;;;31.53;13.83;;;1.00;84.60;;;;;;6207480;23;20013;-80
2023/12/01 03:32:07;;;;;;;30.07;14.77;;;1.00;84.60;;;;;;6231301;23;20008;-81
2023/12/01 03:34:32;;;;;;;30.63;13.97;;;1.00;84.60;;;;;;6232065;23;20019;-81
2023/12/01 03:36:58;;;;;;;29.83;14.93;;;1.00;84.60;;;;;;6233400;23;20012;-81
2023/12/01 03:39:23;;;;;;;27.00;13.10;;;1.00;84.70;;;;;;6233260;23;20013;-81
2023/12/01 03:41:49;;;;;;;27.07;13.20;;;0.90;84.80;;;;;;6234623;23;20041;-81
2023/12/01 03:44:15;;;;;;;31.47;13.77;;;0.90;85.20;;;;;;6234620;23;20412;-81
2023/12/01 03:46:41;;;;;;;32.00;15.03;;;0.90;84.70;;;;;;6210387;23;20046;-81
2023/12/01 03:49:06;;;;;;;30.60;14.93;;;0.90;84.70;;;;;;6237293;23;20012;-81
2023/12/01 03:51:32;;;;;;;27.37;13.00;;;0.90;84.70;;;;;;6238639;23;20008;-81
2023/12/01 03:53:58;;;;;;;25.43;13.13;;;1.00;84.70;;;;;;6208747;23;20020;-81
2023/12/01 03:56:24;;;;;;;22.63;12.10;;;0.90;84.60;;;;;;6202191;23;20024;-81
2023/12/01 03:58:54;;;;;;;20.93;11.70;;;0.90;84.40;;;;;;6227224;23;20020;-81
2023/12/01 04:01:20;;;;;;;24.77;12.27;;;0.80;84.20;;;;;;6225842;23;20024;-81
2023/12/01 04:03:46;;;;;;;23.63;11.80;;;0.80;84.20;;;;;;6225054;23;20012;-81
2023/12/01 04:06:11;;;;;;;25.63;13.00;;;0.80;84.00;;;;;;6223290;23;20036;-81
2023/12/01 04:08:37;;;;;;;25.23;12.30;;;0.70;84.30;;;;;;6233090;23;20019;-81
2023/12/01 04:11:04;;;;;;;22.90;11.63;;;0.70;84.00;;;;;;6234158;23;20024;-81
2023/12/01 04:13:29;;;;;;;21.40;10.93;;;0.60;83.90;;;;;;6260370;23;20008;-81
2023/12/01 04:15:55;;;;;;;20.63;11.63;;;0.60;83.80;;;;;;6234767;23;20060;-81
2023/12/01 04:18:21;;;;;;;23.97;12.77;;;0.50;83.80;;;;;;6235641;23;20088;-81
2023/12/01 04:20:47;;;;;;;25.20;12.67;;;0.50;83.90;;;;;;6214078;23;20034;-81
2023/12/01 04:23:14;;;;;;;25.13;12.97;;;0.50;83.90;;;;;;6213173;23;20027;-81
2023/12/01 04:25:46;;;;;;;20.40;11.57;;;0.50;84.00;;;;;;6237761;23;20016;-81
2023/12/01 04:28:13;;;;;;;21.53;11.93;;;0.40;83.90;;;;;;6238707;23;20384;-81
2023/12/01 04:30:40;;;;;;;26.17;13.90;;;0.40;84.10;;;;;;6263578;23;20042;-81
2023/12/01 04:33:06;;;;;;;24.23;13.33;;;0.40;84.30;;;;;;6264459;23;20147;-81
2023/12/01 04:35:33;;;;;;;23.57;12.67;;;0.40;84.40;;;;;;6237224;23;20036;-81
2023/12/01 04:38:03;;;;;;;23.70;12.27;;;0.40;84.50;;;;;;6238212;23;20038;-81
2023/12/01 04:40:30;;;;;;;23.27;13.03;;;0.40;84.40;;;;;;6237443;23;20016;-81
2023/12/01 04:42:57;;;;;;;21.30;11.67;;;0.40;84.80;;;;;;6265568;23;20017;-82
2023/12/01 04:45:26;;;;;;;22.20;11.93;;;0.40;84.30;;;;;;6214631;23;20012;-81
2023/12/01 04:47:53;;;;;;;24.30;13.50;;;0.40;84.10;;;;;;6241535;23;20008;-82
2023/12/01 04:50:24;;;;;;;26.20;14.37;;;0.40;83.90;;;;;;6212852;23;20039;-81
2023/12/01 04:52:52;;;;;;;24.70;13.90;;;0.30;83.80;;;;;;6240811;23;20012;-80
2023/12/01 04:55:19;;;;;;;27.93;14.13;;;0.30;83.80;;;;;;6211340;23;20012;-81
2023/12/01 04:57:46;;;;;;;24.07;13.63;;;0.30;83.70;;;;;;6234378;23;20396;-81
2023/12/01 05:00:21;;;;;;;24.67;13.80;;;0.20;83.60;;;;;;6209513;23;20068;-81
2023/12/01 05:02:49;;;;;;;28.73;15.73;;;0.20;83.60;;;;;;6212808;23;20027;-81
2023/12/01 05:05:16;;;;;;;27.47;14.13;;;0.20;83.60;;;;;;6237317;23;20016;-80
2023/12/01 05:07:43;;;;;;;29.00;14.63;;;0.10;83.60;;;;;;6238510;23;20016;-81
2023/12/01 05:10:14;;;;;;;27.67;13.97;;;0.10;83.70;;;;;;6210043;23;20023;-81
2023/12/01 05:12:50;;;;;;;27.83;14.53;;;0.10;83.70;;;;;;6230282;23;20452;-81
2023/12/01 05:15:21;;;;;;;26.83;13.80;;;0.10;83.80;;;;;;6209588;23;20099;-81
2023/12/01 05:17:52;;;;;;;24.90;13.67;;;0.10;83.60;;;;;;6199499;23;20044;-81
2023/12/01 05:20:19;;;;;;;24.70;13.27;;;0.00;83.40;;;;;;6235943;23;20012;-81
2023/12/01 05:22:49;;;;;;;26.33;14.00;;;0.00;83.50;;;;;;6211476;23;20330;-82
2023/12/01 05:25:19;;;;;;;29.17;14.93;;;0.00;83.70;;;;;;6236476;23;20013;-81
2023/12/01 05:27:44;;;;;;;27.23;14.43;;;0.00;83.80;;;;;;6236439;23;20000;-81
2023/12/01 05:30:14;;;;;;;25.70;14.07;;;0.10;83.90;;;;;;6236839;23;20530;-81
2023/12/01 05:32:44;;;;;;;23.00;13.23;;;0.10;84.00;;;;;;6236876;23;20012;-81
2023/12/01 05:35:11;;;;;;;27.63;14.70;;;0.10;84.00;;;;;;6236974;23;20076;-81
2023/12/01 05:37:50;;;;;;;29.73;16.30;;;0.10;84.00;;;;;;6213401;23;20039;-80
2023/12/01 05:40:20;;;;;;;29.93;14.97;;;0.10;83.80;;;;;;6237443;23;20055;-80
2023/12/01 05:42:47;;;;;;;27.27;14.43;;;0.10;83.70;;;;;;6236625;23;20047;-81
2023/12/01 05:45:14;;;;;;;29.13;14.80;;;0.20;83.70;;;;;;6211327;23;20019;-80
2023/12/01 05:47:47;;;;;;;28.13;15.90;;;0.20;83.60;;;;;;6235809;23;20016;-80
2023/12/01 05:50:15;;;;;;;27.03;14.23;;;0.10;83.40;;;;;;6236587;23;20035;-80
2023/12/01 05:52:42;;;;;;;28.70;14.67;;;0.10;83.20;;;;;;6230163;23;20057;-82
2023/12/01 05:55:16;;;;;;;28.17;14.60;;;0.10;83.10;;;;;;6235153;23;20040;-81
2023/12/01 05:57:42;;;;;;;27.77;14.60;;;0.10;83.00;;;;;;6237759;23;20018;-81
2023/12/01 06:00:12;;;;;;;31.07;15.37;;;0.10;82.80;;;;;;6239508;23;20027;-81
2023/12/01 06:02:42;;;;;;;29.17;14.97;;;0.00;82.60;;;;;;6239658;23;20095;-81
2023/12/01 06:05:09;;;;;;;28.87;15.07;;;0.00;82.50;;;;;;6242580;23;20004;-80
2023/12/01 06:07:36;;;;;;;26.47;14.53;;;0.00;82.30;;;;;;6239681;23;20016;-80
2023/12/01 06:10:03;;;;;;;25.40;13.07;;;-0.10;82.50;;;;;;6230703;23;20008;-80
2023/12/01 06:12:29;;;;;;;26.13;13.60;;;-0.10;82.10;;;;;;6221440;23;20016;-80
2023/12/01 06:14:54;;;;;;;25.60;13.07;;;-0.10;82.00;;;;;;6196395;23;20008;-80
2023/12/01 06:17:20;;;;;;;26.37;14.20;;;-0.10;81.90;;;;;;6234381;23;20042;-80
2023/12/01 06:19:45;;;;;;;28.60;14.70;;;-0.20;81.70;;;;;;6235637;23;20023;-80
2023/12/01 06:22:11;;;;;;;27.17;14.73;;;-0.20;81.70;;;;;;6235777;23;20051;-80
2023/12/01 06:24:37;;;;;;;24.10;12.50;;;-0.20;81.70;;;;;;6236555;23;20663;-80
2023/12/01 06:27:04;;;;;;;25.63;12.73;;;-0.20;81.90;;;;;;6212080;23;20016;-80
2023/12/01 06:29:30;;;;;;;25.73;13.57;;;-0.30;82.10;;;;;;6236813;23;20042;-80
2023/12/01 06:31:56;;;;;;;28.53;13.83;;;-0.30;82.50;;;;;;6240722;23;20055;-80
2023/12/01 06:34:22;;;;;;;24.23;12.70;;;-0.20;82.60;;;;;;6263435;23;20008;-80
2023/12/01 06:36:47;;;;;;;25.23;13.17;;;-0.20;82.90;;;;;;6236428;23;20444;-80
2023/12/01 06:39:13;;;;;;;26.80;13.00;;;-0.20;83.20;;;;;;6209216;23;20012;-80
2023/12/01 06:41:41;;;;;;;25.47;13.00;;;-0.10;83.50;;;;;;6234122;23;20421;-80
2023/12/01 06:44:07;;;;;;;26.60;13.50;;;-0.10;83.70;;;;;;6233625;23;20018;-80
2023/12/01 06:46:33;;;;;;;27.20;14.50;;;-0.10;83.90;;;;;;6233955;23;20012;-80
2023/12/01 06:48:59;;;;;;;25.13;13.60;;;0.00;84.20;;;;;;6231532;23;20068;-80
2023/12/01 06:51:25;;;;;;;28.43;13.90;;;0.00;84.40;;;;;;6205796;23;20004;-80
2023/12/01 06:53:51;;;;;;;27.17;13.40;;;0.10;84.60;;;;;;6206675;23;20020;-80
2023/12/01 06:56:16;;;;;;;28.23;14.43;;;0.10;84.60;;;;;;6230378;23;20012;-80
2023/12/01 06:58:42;;;;;;;22.00;11.37;;;0.10;84.60;;;;;;6230750;23;20016;-80
2023/12/01 07:01:08;;;;;;;26.10;13.47;;;0.20;84.70;;;;;;6230701;23;20091;-80
2023/12/01 07:03:33;;;;;;;24.17;12.20;;;0.20;85.00;;;;;;6234823;23;20016;-79
2023/12/01 07:05:59;;;;;;;23.07;12.33;;;0.20;84.60;;;;;;6237638;23;20043;-79
2023/12/01 07:08:25;;;;;;;23.53;12.13;;;0.30;84.60;;;;;;6232745;23;20036;-79
2023/12/01 07:10:51;;;;;;;26.73;13.87;;;0.30;84.60;;;;;;6234100;23;20477;-80
2023/12/01 07:13:17;;;;;;;29.63;15.60;;;0.30;84.40;;;;;;6258994;23;20022;-79
2023/12/01 07:15:43;;;;;;;26.47;14.20;;;0.30;84.10;;;;;;6232304;23;20038;-79
2023/12/01 07:18:09;;;;;;;28.03;14.63;;;0.30;83.60;;;;;;6231424;23;20425;-79
2023/12/01 07:20:35;;;;;;;24.53;13.50;;;0.20;83.20;;;;;;6229825;23;20016;-79
2023/12/01 07:23:01;;;;;;;27.63;13.67;;;0.20;83.00;;;;;;6231637;23;20020;-80
2023/12/01 07:25:26;;;;;;;29.77;14.23;;;0.20;82.90;;;;;;6233712;23;20399;-80
2023/12/01 07:28:00;;;;;;;24.37;12.60;;;0.20;82.90;;;;;;6210776;23;20344;-79
2023/12/01 07:30:29;;;;;;;23.80;13.05;;;0.20;83.10;;;;;;6237269;23;20020;-79
2023/12/01 07:32:56;;;;;;;24.27;12.73;;;0.20;83.20;;;;;;6232768;23;20015;-79
2023/12/01 07:35:21;;;;;;;26.30;14.00;;;0.20;83.40;;;;;;6206531;23;20008;-79
2023/12/01 07:37:51;;;;;;;26.10;13.60;;;0.20;83.40;;;;;;6232105;23;20019;-79
2023/12/01 07:40:20;;;;;;;24.13;12.90;;;0.20;83.40;;;;;;6259027;23;20016;-80
2023/12/01 07:42:47;;;;;;;24.27;12.80;;;0.20;83.60;;;;;;6232411;23;20043;-79
2023/12/01 07:45:19;;;;;;;29.30;14.27;;;0.30;83.80;;;;;;6261203;23;20099;-79
2023/12/01 07:47:52;;;;;;;24.70;12.83;;;0.30;83.80;;;;;;6238571;23;20012;-80
2023/12/01 07:50:18;;;;;;;25.87;12.97;;;0.30;83.80;;;;;;6233595;23;20023;-80
2023/12/01 07:52:45;;;;;;;25.27;13.10;;;0.30;83.80;;;;;;6235181;23;20012;-79
2023/12/01 07:55:11;;;;;;;29.50;14.30;;;0.30;83.70;;;;;;6262411;23;20015;-80
2023/12/01 07:57:38;;;;;;;23.73;12.17;;;0.30;83.60;;;;;;6264261;23;20008;-80
2023/12/01 08:00:14;;;;;;;30.27;14.77;;;0.30;83.50;;;;;;6232772;23;20023;-80
2023/12/01 08:02:43;;;;;;;27.63;14.93;;;0.30;83.40;;;;;;6256819;23;20012;-79
2023/12/01 08:05:13;;;;;;;30.23;16.63;;;0.30;83.30;;;;;;6231854;23;20023;-79
2023/12/01 08:07:44;;;;;;;28.83;15.13;;;0.30;82.70;;;;;;6255080;23;20004;-79
2023/12/01 08:10:14;;;;;;;29.83;15.90;;;0.20;82.10;;;;;;6229672;23;20039;-80
2023/12/01 08:12:43;;;;;;;30.87;17.43;;;0.20;81.90;;;;;;6226670;23;20047;-79
2023/12/01 08:15:09;;;;;;;32.30;18.23;;;0.10;81.60;;;;;;6228985;23;20055;-79
2023/12/01 08:17:37;;;;;;;30.70;16.63;;;0.00;81.10;;;;;;6232301;23;20027;-79
2023/12/01 08:20:05;;;;;;;30.57;16.17;;;-0.10;80.90;;;;;;6260243;23;20012;-80
2023/12/01 08:22:31;;;;;;;33.90;16.43;;;-0.20;80.80;;;;;;6254389;23;20024;-80
2023/12/01 08:24:57;;;;;;;32.00;16.30;;;-0.30;80.80;;;;;;6229282;23;20043;-79
2023/12/01 08:27:22;;;;;;;32.07;15.73;;;-0.40;80.80;;;;;;6231875;23;20434;-79
2023/12/01 08:29:49;;;;;;;30.67;14.60;;;-0.40;81.10;;;;;;6233180;23;20016;-80
2023/12/01 08:32:15;;;;;;;31.10;15.07;;;-0.40;81.30;;;;;;6207056;23;20009;-79
2023/12/01 08:34:42;;;;;;;32.50;15.30;;;-0.50;81.40;;;;;;6204644;23;20026;-80
2023/12/01 08:37:07;;;;;;;31.93;15.50;;;-0.50;81.50;;;;;;6258149;23;20054;-79
2023/12/01 08:39:33;;;;;;;34.97;16.63;;;-0.50;81.50;;;;;;6234480;23;20016;-80
2023/12/01 08:41:59;;;;;;;30.33;14.70;;;-0.50;81.60;;;;;;6231629;23;20023;-80
2023/12/01 08:44:24;;;;;;;36.10;17.33;;;-0.50;82.20;;;;;;6203717;23;20116;-80
2023/12/01 08:46:50;;;;;;;31.63;15.37;;;-0.50;82.00;;;;;;6206782;23;20043;-80
2023/12/01 08:49:16;;;;;;;32.73;16.13;;;-0.40;82.50;;;;;;6232908;23;20020;-80
2023/12/01 08:51:41;;;;;;;33.23;16.37;;;-0.40;82.70;;;;;;6231153;23;20013;-79
2023/12/01 08:54:07;;;;;;;31.73;15.53;;;-0.30;82.90;;;;;;6235662;23;20091;-80
2023/12/01 08:56:34;;;;;;;35.37;16.03;;;-0.30;82.90;;;;;;6261451;23;20031;-80
2023/12/01 08:58:59;;;;;;;37.03;16.80;;;-0.20;83.00;;;;;;6216279;23;20039;-81
2023/12/01 09:01:26;;;;;;;33.10;15.97;;;-0.10;83.10;;;;;;6241352;23;20016;-81
2023/12/01 09:03:51;;;;;;;32.53;16.90;;;-0.10;83.00;;;;;;6218502;23;20016;-81
2023/12/01 09:06:17;;;;;;;30.97;15.23;;;0.00;82.70;;;;;;6246185;22;20043;-81
2023/12/01 09:08:43;;;;;;;37.93;17.60;;;0.00;82.30;;;;;;6242860;23;20016;-80
2023/12/01 09:11:09;;;;;;;36.40;17.27;;;0.00;81.90;;;;;;6240555;23;20059;-81
2023/12/01 09:13:36;;;;;;;38.70;17.80;;;0.00;81.60;;;;;;6240065;23;20038;-82
2023/12/01 09:16:02;;;;;;;33.53;15.73;;;0.00;81.20;;;;;;6214085;23;20386;-81
2023/12/01 09:18:29;;;;;;;30.20;14.33;;;0.00;81.20;;;;;;6240099;23;20000;-81
2023/12/01 09:20:55;;;;;;;34.77;16.87;;;0.00;81.40;;;;;;6240410;23;20032;-81
2023/12/01 09:23:22;;;;;;;32.83;16.43;;;0.10;81.40;;;;;;6215792;23;20008;-81
2023/12/01 09:25:48;;;;;;;32.20;16.23;;;0.10;81.20;;;;;;6242760;23;20012;-81
2023/12/01 09:28:14;;;;;;;28.27;13.97;;;0.10;81.00;;;;;;6236789;23;20039;-81
2023/12/01 09:30:39;;;;;;;33.23;16.57;;;0.10;80.90;;;;;;6211857;23;20016;-81
2023/12/01 09:33:06;;;;;;;35.27;16.57;;;0.20;80.90;;;;;;6213220;23;20036;-81
2023/12/01 09:35:31;;;;;;;30.40;15.67;;;0.20;80.90;;;;;;6212396;23;20008;-81
2023/12/01 09:37:57;;;;;;;32.87;15.73;;;0.20;80.50;;;;;;6238441;23;20036;-82
2023/12/01 09:40:24;;;;;;;33.53;16.87;;;0.30;80.30;;;;;;6238578;23;20016;-82
2023/12/01 09:42:50;;;;;;;29.43;14.57;;;0.20;80.00;;;;;;6239189;23;20038;-82
2023/12/01 09:45:21;;;;;;;31.57;14.63;;;0.20;80.00;;;;;;6239176;23;20067;-82
2023/12/01 09:47:57;;;;;;;28.10;14.57;;;0.30;80.10;;;;;;6238800;23;20336;-82
2023/12/01 09:50:22;;;;;;;30.13;15.53;;;0.30;80.10;;;;;;6239448;23;20023;-82
2023/12/01 09:52:48;;;;;;;31.00;15.73;;;0.40;80.00;;;;;;6240108;23;20068;-82
2023/12/01 09:55:15;;;;;;;29.30;14.90;;;0.40;79.80;;;;;;6240472;23;20004;-82
2023/12/01 09:57:42;;;;;;;29.57;14.60;;;0.40;79.60;;;;;;6239848;23;20074;-81
2023/12/01 10:00:11;;;;;;;29.87;13.60;;;0.40;79.30;;;;;;6239327;23;20067;-81
2023/12/01 10:02:40;;;;;;;28.50;13.53;;;0.50;79.30;;;;;;6238849;23;20019;-81
2023/12/01 10:05:06;;;;;;;27.30;13.57;;;0.50;79.00;;;;;;6233219;23;20023;-81
2023/12/01 10:07:33;;;;;;;25.90;12.67;;;0.50;78.40;;;;;;6232320;23;20059;-82
2023/12/01 10:09:59;;;;;;;24.40;12.47;;;0.50;78.20;;;;;;6236469;23;20060;-81
2023/12/01 10:12:25;;;;;;;21.77;11.37;;;0.50;77.90;;;;;;6237531;23;20023;-82
2023/12/01 10:14:51;;;;;;;23.90;12.47;;;0.50;77.90;;;;;;6238528;23;20009;-81
2023/12/01 10:17:25;;;;;;;26.40;13.83;;;0.50;77.50;;;;;;6267091;23;20038;-81
2023/12/01 10:19:51;;;;;;;23.63;12.13;;;0.50;77.30;;;;;;6266346;23;20065;-81
2023/12/01 10:22:19;;;;;;;23.03;11.63;;;0.50;76.90;;;;;;6239777;23;20012;-81
2023/12/01 10:24:56;;;;;;;23.30;11.93;;;0.50;76.90;;;;;;6215377;23;20020;-82
2023/12/01 10:27:22;;;;;;;26.83;13.27;;;0.50;76.60;;;;;;6240538;23;20012;-81
2023/12/01 10:29:48;;;;;;;25.87;12.23;;;0.50;76.50;;;;;;6266774;23;20019;-80
2023/12/01 10:32:17;;;;;;;21.87;11.67;;;0.50;76.50;;;;;;6217689;23;20012;-80
2023/12/01 10:34:52;;;;;;;23.27;12.30;;;0.50;76.20;;;;;;6217922;23;20008;-81
2023/12/01 10:37:18;;;;;;;22.83;12.47;;;0.50;76.10;;;;;;6244561;23;20019;-80
2023/12/01 10:39:45;;;;;;;26.17;13.47;;;0.50;76.20;;;;;;6245207;23;20024;-81
2023/12/01 10:42:12;;;;;;;22.37;11.73;;;0.50;76.00;;;;;;6245231;23;20018;-81
2023/12/01 10:44:39;;;;;;;22.17;10.97;;;0.50;75.70;;;;;;6258861;23;20076;-79
2023/12/01 10:47:07;;;;;;;20.80;10.33;;;0.50;75.70;;;;;;6232720;23;20019;-80
2023/12/01 10:49:35;;;;;;;23.70;11.87;;;0.50;75.70;;;;;;6238911;23;20012;-79
2023/12/01 10:52:01;;;;;;;18.17;10.47;;;0.50;75.90;;;;;;6239582;23;20012;-80
2023/12/01 10:54:27;;;;;;;20.87;10.93;;;0.50;75.70;;;;;;6240154;23;20023;-80
2023/12/01 10:57:01;;;;;;;18.83;11.13;;;0.50;75.70;;;;;;6267421;23;20008;-80
2023/12/01 10:59:28;;;;;;;20.60;10.43;;;0.50;75.70;;;;;;6268636;23;20016;-80
2023/12/01 11:01:58;;;;;;;20.97;11.40;;;0.50;75.90;;;;;;6268600;23;20019;-81
2023/12/01 11:04:29;;;;;;;17.60;10.23;;;0.60;76.20;;;;;;6270571;23;20011;-81
2023/12/01 11:07:00;;;;;;;20.23;10.77;;;0.60;76.30;;;;;;6249007;23;20036;-81
2023/12/01 11:09:42;;;;;;;20.37;10.73;;;0.70;76.30;;;;;;6239021;23;20024;-81
2023/12/01 11:12:13;;;;;;;24.90;11.77;;;0.70;76.20;;;;;;6238938;23;20012;-81
2023/12/01 11:14:39;;;;;;;19.43;9.97;;;0.70;76.30;;;;;;6266565;23;20012;-81
2023/12/01 11:17:06;;;;;;;20.60;10.47;;;0.70;76.30;;;;;;6238496;23;20023;-81
2023/12/01 11:19:38;;;;;;;21.03;10.40;;;0.70;76.10;;;;;;6238388;23;20012;-81
2023/12/01 11:22:27;;;;;;;18.80;11.40;;;0.70;75.80;;;;;;6238028;23;20023;-82
2023/12/01 11:24:54;;;;;;;18.13;10.00;;;0.80;75.90;;;;;;6238070;23;20023;-81
2023/12/01 11:27:19;;;;;;;15.73;9.10;;;0.70;76.20;;;;;;6214882;23;20329;-81
2023/12/01 11:30:12;;;;;;;16.83;9.90;;;0.80;76.10;;;;;;6233016;23;20018;-80
2023/12/01 11:32:44;;;;;;;18.47;10.00;;;0.80;76.10;;;;;;6240920;23;20016;-81
2023/12/01 11:35:11;;;;;;;18.63;11.20;;;0.80;76.40;;;;;;6263500;23;20018;-80
2023/12/01 11:37:55;;;;;;;19.73;10.93;;;0.80;76.30;;;;;;6230311;23;20320;-79
2023/12/01 11:40:22;;;;;;;16.42;9.95;;;0.90;76.00;;;;;;6228203;23;20513;-79
2023/12/01 11:42:50;;;;;;;18.13;11.23;;;0.90;76.10;;;;;;6229568;23;20016;-79
2023/12/01 11:45:16;;;;;;;17.70;10.00;;;0.80;76.00;;;;;;6230254;23;20038;-79
2023/12/01 11:47:42;;;;;;;19.60;10.60;;;0.90;76.10;;;;;;6208001;23;20008;-79
2023/12/01 11:50:12;;;;;;;18.97;11.13;;;0.90;76.10;;;;;;6251695;23;20004;-79
2023/12/01 11:52:38;;;;;;;16.13;9.37;;;0.90;76.00;;;;;;6227676;23;20016;-79
2023/12/01 11:55:14;;;;;;;18.13;10.13;;;1.00;76.00;;;;;;6232389;23;20068;-80
2023/12/01 11:57:50;;;;;;;17.70;10.03;;;1.00;75.90;;;;;;6263541;23;20027;-80
2023/12/01 12:00:16;;;;;;;16.47;9.13;;;1.00;76.00;;;;;;6259255;23;20027;-80
2023/12/01 12:02:42;;;;;;;18.83;10.20;;;0.90;75.90;;;;;;6257310;23;20039;-80
2023/12/01 12:05:08;;;;;;;17.00;10.63;;;1.00;75.90;;;;;;6228376;23;20024;-81
2023/12/01 12:07:35;;;;;;;17.80;9.30;;;0.90;75.90;;;;;;6239374;23;20012;-80
2023/12/01 12:10:01;;;;;;;16.83;10.27;;;1.00;76.10;;;;;;6267183;23;20019;-80
2023/12/01 12:12:27;;;;;;;16.17;9.07;;;1.00;76.10;;;;;;6267816;23;20024;-80
2023/12/01 12:14:55;;;;;;;17.13;9.60;;;1.00;76.20;;;;;;6267653;23;20031;-80
2023/12/01 12:17:22;;;;;;;16.03;10.00;;;1.60;76.80;;;;;;6216112;23;20012;-80
2023/12/01 12:19:47;;;;;;;20.40;11.10;;;1.00;76.50;;;;;;6267031;23;20306;-81
2023/12/01 12:22:13;;;;;;;16.57;9.30;;;1.00;76.60;;;;;;6235305;23;20022;-80
2023/12/01 12:24:42;;;;;;;18.27;10.40;;;1.20;76.70;;;;;;6234936;23;20024;-80
2023/12/01 12:27:07;;;;;;;18.77;10.73;;;1.00;76.70;;;;;;6234397;23;20012;-81
2023/12/01 12:29:34;;;;;;;14.83;9.70;;;1.00;77.00;;;;;;6231569;23;20008;-81
2023/12/01 12:32:01;;;;;;;15.03;8.93;;;1.00;77.20;;;;;;6233513;23;20012;-81
2023/12/01 12:34:27;;;;;;;14.80;9.40;;;1.00;77.40;;;;;;6233487;23;20012;-81
2023/12/01 12:36:53;;;;;;;15.87;9.43;;;0.90;77.60;;;;;;6234454;23;20042;-80